Change the Weather History Date:

Friday, November 2, 2012

  Actual Average Record
Temperature  
Mean Temperature 27 °F -  
Max Temperature 35 °F 39 °F 60 °F (2000)
Min Temperature 19 °F 26 °F 3 °F (1997)
Degree Days  
Heating Degree Days 38    
Moisture  
Dew Point 21 °F    
Average Humidity 84    
Maximum Humidity 93    
Minimum Humidity 70    
Precipitation  
Precipitation 0.00 in - - ()
Sea Level Pressure  
Sea Level Pressure 30.18 in    
Wind  
Wind Speed 4 mph (North)    
Max Wind Speed 7 mph    
Max Gust Speed -    
Visibility 10 miles    
Events      
Averages and records for this station are not official NWS values.
T = Trace of Precipitation, MM = Missing Value Source: NWS Daily Summary

Daily Weather History Graph

Daily Weather History Graph

Search for Another Location

Airport or City:

Trip Planner

Search our weather history database for the weather conditions in past years. The results will help you decide how hot, cold, wet, or windy it might be!

Date:

Astronomy

Nov. 02, 2012 Rise Set
Actual Time 7:57 AM CDT 5:48 PM CDT
Civil Twilight 7:24 AM CDT 6:21 PM CDT
Nautical Twilight 6:48 AM CDT 6:58 PM CDT
Astronomical Twilight 6:11 AM CDT 7:34 PM CDT
Moon 8:26 PM CDT (11/2) 11:28 AM CDT (11/2)
Length of Visible Light 10h 56m
Length of Day
9h 50m
Waning Gibbous, 87% of the Moon is Illuminated
Nov 2
Waning Gibbous
Nov 6
Last Quarter
Nov 13
New
Nov 20
First Quarter
Nov 28
Full

Hourly Weather History & Observations

Time (CDT) Temp. Windchill Dew Point Humidity Pressure Visibility Wind Dir Wind Speed Gust Speed Precip Events Conditions
12:07 AM 26.6 °F 20.0 °F 21.2 °F 80% 30.13 in 10.0 mi North 5.8 mph - N/A   Scattered Clouds
12:27 AM 26.6 °F 19.1 °F 21.2 °F 80% 30.13 in 10.0 mi North 6.9 mph - N/A   Mostly Cloudy
12:47 AM 26.6 °F 20.0 °F 21.2 °F 80% 30.13 in 10.0 mi North 5.8 mph - N/A   Mostly Cloudy
1:07 AM 26.6 °F 21.2 °F 23.0 °F 86% 30.13 in 10.0 mi North 4.6 mph - N/A   Mostly Cloudy
1:27 AM 26.6 °F 20.0 °F 23.0 °F 86% 30.13 in 10.0 mi NNE 5.8 mph - N/A   Overcast
1:47 AM 26.6 °F 22.6 °F 21.2 °F 80% 30.13 in 10.0 mi NNE 3.5 mph - N/A   Overcast
2:07 AM 26.6 °F 19.1 °F 23.0 °F 86% 30.13 in 10.0 mi NNE 6.9 mph - N/A   Overcast
2:27 AM 26.6 °F 20.0 °F 21.2 °F 80% 30.13 in 10.0 mi North 5.8 mph - N/A   Overcast
2:47 AM 24.8 °F 20.5 °F 21.2 °F 86% 30.13 in 10.0 mi NNE 3.5 mph - N/A   Overcast
3:07 AM 24.8 °F 20.5 °F 21.2 °F 86% 30.14 in 10.0 mi NNE 3.5 mph - N/A   Overcast
3:27 AM 24.8 °F 17.9 °F 21.2 °F 86% 30.14 in 10.0 mi NE 5.8 mph - N/A   Overcast
3:47 AM 24.8 °F 17.9 °F 21.2 °F 86% 30.14 in 10.0 mi North 5.8 mph - N/A   Overcast
4:07 AM 24.8 °F 17.9 °F 19.4 °F 80% 30.14 in 10.0 mi North 5.8 mph - N/A   Mostly Cloudy
4:27 AM 23.0 °F 18.4 °F 19.4 °F 86% 30.14 in 10.0 mi NE 3.5 mph - N/A   Mostly Cloudy
4:48 AM 23.0 °F 17.0 °F 19.4 °F 86% 30.14 in 10.0 mi NNE 4.6 mph - N/A   Mostly Cloudy
5:07 AM 23.0 °F 17.0 °F 19.4 °F 86% 30.15 in 10.0 mi North 4.6 mph - N/A   Mostly Cloudy
5:27 AM 24.8 °F 17.9 °F 19.4 °F 80% 30.15 in 10.0 mi North 5.8 mph - N/A   Overcast
5:47 AM 24.8 °F 17.9 °F 21.2 °F 86% 30.16 in 10.0 mi North 5.8 mph - N/A   Overcast
6:07 AM 23.0 °F 18.4 °F 19.4 °F 86% 30.16 in 10.0 mi NNE 3.5 mph - N/A   Overcast
6:27 AM 23.0 °F 17.0 °F 19.4 °F 86% 30.17 in 10.0 mi North 4.6 mph - N/A   Overcast
6:47 AM 23.0 °F 18.4 °F 19.4 °F 86% 30.17 in 10.0 mi North 3.5 mph - N/A   Overcast
7:07 AM 24.8 °F 20.5 °F 21.2 °F 86% 30.17 in 10.0 mi North 3.5 mph - N/A   Overcast
7:27 AM 24.8 °F 19.1 °F 21.2 °F 86% 30.17 in 10.0 mi NNW 4.6 mph - N/A   Overcast
7:47 AM 23.0 °F 18.4 °F 19.4 °F 86% 30.18 in 10.0 mi NNE 3.5 mph - N/A   Overcast
8:07 AM 23.0 °F 18.4 °F 19.4 °F 86% 30.18 in 10.0 mi NE 3.5 mph - N/A   Overcast
8:28 AM 23.0 °F 15.8 °F 19.4 °F 86% 30.19 in 10.0 mi North 5.8 mph - N/A   Overcast
8:47 AM 23.0 °F 18.4 °F 19.4 °F 86% 30.19 in 10.0 mi NNE 3.5 mph - N/A   Overcast
9:07 AM 23.0 °F 17.0 °F 19.4 °F 86% 30.20 in 10.0 mi NE 4.6 mph - N/A   Overcast
9:27 AM 24.8 °F 17.9 °F 21.2 °F 86% 30.20 in 10.0 mi NNW 5.8 mph - N/A   Overcast
9:47 AM 24.8 °F 20.5 °F 21.2 °F 86% 30.20 in 10.0 mi NNE 3.5 mph - N/A   Overcast
10:07 AM 24.8 °F 19.1 °F 21.2 °F 86% 30.20 in 10.0 mi North 4.6 mph - N/A   Overcast
10:27 AM 24.8 °F 19.1 °F 21.2 °F 86% 30.21 in 10.0 mi NE 4.6 mph - N/A   Overcast
10:47 AM 24.8 °F 17.9 °F 21.2 °F 86% 30.21 in 10.0 mi NNW 5.8 mph - N/A   Overcast
11:07 AM 24.8 °F 19.1 °F 21.2 °F 86% 30.21 in 10.0 mi North 4.6 mph - N/A   Overcast
11:27 AM 26.6 °F 22.6 °F 23.0 °F 86% 30.21 in 10.0 mi NNW 3.5 mph - N/A   Overcast
11:47 AM 26.6 °F 20.0 °F 23.0 °F 86% 30.21 in 10.0 mi North 5.8 mph - N/A   Overcast
12:07 PM 26.6 °F 20.0 °F 23.0 °F 86% 30.21 in 10.0 mi North 5.8 mph - N/A   Overcast
12:28 PM 26.6 °F 22.6 °F 24.8 °F 93% 30.22 in 10.0 mi NNW 3.5 mph - N/A   Overcast
12:47 PM 28.4 °F 23.3 °F 24.8 °F 86% 30.21 in 10.0 mi NE 4.6 mph - N/A   Overcast
1:07 PM 28.4 °F 23.3 °F 24.8 °F 86% 30.21 in 10.0 mi North 4.6 mph - N/A   Overcast
1:27 PM 28.4 °F - 24.8 °F 86% 30.20 in 10.0 mi Calm Calm - N/A   Overcast
1:47 PM 30.2 °F 25.4 °F 24.8 °F 80% 30.20 in 10.0 mi NNE 4.6 mph - N/A   Overcast
2:07 PM 30.2 °F 25.4 °F 24.8 °F 80% 30.20 in 10.0 mi North 4.6 mph - N/A   Overcast
2:27 PM 30.2 °F 26.7 °F 26.6 °F 86% 30.19 in 10.0 mi North 3.5 mph - N/A   Overcast
2:47 PM 30.2 °F 26.7 °F 26.6 °F 86% 30.19 in 10.0 mi NNW 3.5 mph - N/A   Mostly Cloudy
3:07 PM 33.8 °F 30.8 °F 26.6 °F 75% 30.18 in 10.0 mi NNE 3.5 mph - N/A   Clear
3:27 PM 33.8 °F 30.8 °F 26.6 °F 75% 30.18 in 10.0 mi NNE 3.5 mph - N/A   Clear
3:47 PM 35.6 °F 32.8 °F 26.6 °F 70% 30.18 in 10.0 mi East 3.5 mph - N/A   Clear
4:07 PM 33.8 °F - 24.8 °F 70% 30.18 in 10.0 mi Calm Calm - N/A   Clear
4:28 PM 32.0 °F - 24.8 °F 75% 30.19 in 10.0 mi Calm Calm - N/A   Clear
4:47 PM 30.2 °F - 23.0 °F 75% 30.18 in 10.0 mi Calm Calm - N/A   Clear
5:07 PM 28.4 °F - 21.2 °F 74% 30.18 in 10.0 mi Calm Calm - N/A   Clear
5:27 PM 26.6 °F - 19.4 °F 74% 30.19 in 10.0 mi Calm Calm - N/A   Clear
5:47 PM 24.8 °F - 17.6 °F 74% 30.20 in 10.0 mi Calm Calm - N/A   Clear
6:07 PM 23.0 °F - 17.6 °F 80% 30.20 in 10.0 mi Calm Calm - N/A   Scattered Clouds
6:27 PM 21.2 °F - 17.6 °F 86% 30.20 in 10.0 mi Calm Calm - N/A   Scattered Clouds
6:47 PM 21.2 °F - 17.6 °F 86% 30.21 in 10.0 mi Calm Calm - N/A   Scattered Clouds
7:27 PM 19.4 °F - 15.8 °F 86% 30.21 in 10.0 mi Calm Calm - N/A   Clear
7:47 PM 19.4 °F - 15.8 °F 86% 30.21 in 10.0 mi Calm Calm - N/A   Clear
8:07 PM 19.4 °F - 15.8 °F 86% 30.21 in 10.0 mi Calm Calm - N/A   Clear
8:27 PM 19.4 °F - 15.8 °F 86% 30.21 in 10.0 mi Calm Calm - N/A   Clear
8:47 PM 19.4 °F - 15.8 °F 86% 30.21 in 10.0 mi Calm Calm - N/A   Clear
9:07 PM 19.4 °F - 17.6 °F 93% 30.22 in 10.0 mi Calm Calm - N/A   Clear
9:27 PM 19.4 °F - 17.6 °F 93% 30.22 in 10.0 mi Calm Calm - N/A   Clear
9:47 PM 19.4 °F - 17.6 °F 93% 30.22 in 10.0 mi Calm Calm - N/A   Clear
10:07 PM 19.4 °F - 17.6 °F 93% 30.23 in 10.0 mi Calm Calm - N/A   Clear
10:27 PM 19.4 °F - 17.6 °F 93% 30.23 in 10.0 mi Calm Calm - N/A   Clear
10:47 PM 19.4 °F - 17.6 °F 93% 30.24 in 10.0 mi Calm Calm - N/A   Clear
11:07 PM 19.4 °F - 15.8 °F 86% 30.24 in 10.0 mi Calm Calm - N/A   Clear
11:27 PM 19.4 °F - 15.8 °F 86% 30.24 in 10.0 mi Calm Calm - N/A   Clear
11:47 PM 19.4 °F - 17.6 °F 93% 30.24 in 10.0 mi Calm Calm - N/A   Clear